sensor_id;sensor_type;location;lat;lon;timestamp;pressure;altitude;pressure_sealevel;temperature;humidity
10946;BME280;5525;42.648;23.368;2023-12-28T00:01:47;95800.03;;;3.95;100.00
10946;BME280;5525;42.648;23.368;2023-12-28T00:04:15;95811.47;;;3.91;100.00
10946;BME280;5525;42.648;23.368;2023-12-28T00:06:42;95799.94;;;3.85;100.00
10946;BME280;5525;42.648;23.368;2023-12-28T00:09:09;95804.53;;;3.90;100.00
10946;BME280;5525;42.648;23.368;2023-12-28T00:11:36;95807.25;;;3.95;100.00
10946;BME280;5525;42.648;23.368;2023-12-28T00:14:04;95810.97;;;3.94;100.00
10946;BME280;5525;42.648;23.368;2023-12-28T00:16:31;95811.66;;;3.79;100.00
10946;BME280;5525;42.648;23.368;2023-12-28T00:18:59;95817.56;;;3.81;100.00
10946;BME280;5525;42.648;23.368;2023-12-28T00:21:27;95831.16;;;3.80;100.00
10946;BME280;5525;42.648;23.368;2023-12-28T00:23:54;95824.50;;;3.82;100.00
10946;BME280;5525;42.648;23.368;2023-12-28T00:26:21;95828.19;;;3.76;100.00
10946;BME280;5525;42.648;23.368;2023-12-28T00:28:47;95817.56;;;3.81;100.00
10946;BME280;5525;42.648;23.368;2023-12-28T00:31:16;95816.78;;;3.86;100.00
10946;BME280;5525;42.648;23.368;2023-12-28T00:33:42;95817.00;;;3.79;100.00
10946;BME280;5525;42.648;23.368;2023-12-28T00:36:09;95811.84;;;3.73;100.00
10946;BME280;5525;42.648;23.368;2023-12-28T00:38:36;95812.72;;;3.78;100.00
10946;BME280;5525;42.648;23.368;2023-12-28T00:41:03;95816.88;;;3.69;100.00
10946;BME280;5525;42.648;23.368;2023-12-28T00:43:30;95819.53;;;3.64;100.00
10946;BME280;5525;42.648;23.368;2023-12-28T00:45:56;95821.72;;;3.72;100.00
10946;BME280;5525;42.648;23.368;2023-12-28T00:48:24;95819.97;;;3.83;100.00
10946;BME280;5525;42.648;23.368;2023-12-28T00:50:52;95830.59;;;3.78;100.00
10946;BME280;5525;42.648;23.368;2023-12-28T00:53:20;95827.06;;;3.72;100.00
10946;BME280;5525;42.648;23.368;2023-12-28T00:55:47;95836.53;;;3.85;100.00
10946;BME280;5525;42.648;23.368;2023-12-28T00:58:14;95831.44;;;3.83;100.00
10946;BME280;5525;42.648;23.368;2023-12-28T01:00:41;95835.53;;;3.91;100.00
10946;BME280;5525;42.648;23.368;2023-12-28T01:03:07;95836.41;;;3.70;100.00
10946;BME280;5525;42.648;23.368;2023-12-28T01:05:36;95847.44;;;3.52;100.00
10946;BME280;5525;42.648;23.368;2023-12-28T01:08:03;95845.41;;;3.37;100.00
10946;BME280;5525;42.648;23.368;2023-12-28T01:10:30;95843.72;;;3.31;100.00
10946;BME280;5525;42.648;23.368;2023-12-28T01:12:56;95845.09;;;3.33;100.00
10946;BME280;5525;42.648;23.368;2023-12-28T01:15:23;95839.81;;;3.38;100.00
10946;BME280;5525;42.648;23.368;2023-12-28T01:17:50;95847.03;;;3.38;100.00
10946;BME280;5525;42.648;23.368;2023-12-28T01:20:17;95836.34;;;3.38;100.00
10946;BME280;5525;42.648;23.368;2023-12-28T01:22:45;95837.38;;;3.37;100.00
10946;BME280;5525;42.648;23.368;2023-12-28T01:25:12;95840.13;;;3.42;100.00
10946;BME280;5525;42.648;23.368;2023-12-28T01:27:38;95846.38;;;3.53;100.00
10946;BME280;5525;42.648;23.368;2023-12-28T01:30:06;95842.59;;;3.48;100.00
10946;BME280;5525;42.648;23.368;2023-12-28T01:32:33;95839.38;;;3.46;100.00
10946;BME280;5525;42.648;23.368;2023-12-28T01:35:00;95834.22;;;3.40;100.00
10946;BME280;5525;42.648;23.368;2023-12-28T01:37:27;95828.75;;;3.52;100.00
10946;BME280;5525;42.648;23.368;2023-12-28T01:39:57;95826.78;;;3.42;100.00
10946;BME280;5525;42.648;23.368;2023-12-28T01:42:24;95827.22;;;3.34;100.00
10946;BME280;5525;42.648;23.368;2023-12-28T01:44:51;95825.97;;;3.20;100.00
10946;BME280;5525;42.648;23.368;2023-12-28T01:47:18;95824.88;;;2.94;100.00
10946;BME280;5525;42.648;23.368;2023-12-28T01:49:45;95823.88;;;3.00;100.00
10946;BME280;5525;42.648;23.368;2023-12-28T01:52:15;95832.56;;;2.91;100.00
10946;BME280;5525;42.648;23.368;2023-12-28T01:54:42;95825.69;;;2.95;100.00
10946;BME280;5525;42.648;23.368;2023-12-28T01:57:10;95829.88;;;2.91;100.00
10946;BME280;5525;42.648;23.368;2023-12-28T01:59:37;95819.38;;;3.01;100.00
10946;BME280;5525;42.648;23.368;2023-12-28T02:02:04;95811.88;;;3.24;100.00
10946;BME280;5525;42.648;23.368;2023-12-28T02:04:31;95819.53;;;3.16;100.00
10946;BME280;5525;42.648;23.368;2023-12-28T02:06:59;95813.84;;;3.29;100.00
10946;BME280;5525;42.648;23.368;2023-12-28T02:09:26;95823.88;;;3.22;100.00
10946;BME280;5525;42.648;23.368;2023-12-28T02:11:54;95828.53;;;3.31;100.00
10946;BME280;5525;42.648;23.368;2023-12-28T02:14:22;95825.47;;;3.23;100.00
10946;BME280;5525;42.648;23.368;2023-12-28T02:16:56;95817.22;;;3.24;100.00
10946;BME280;5525;42.648;23.368;2023-12-28T02:19:31;95813.88;;;3.12;100.00
10946;BME280;5525;42.648;23.368;2023-12-28T02:21:59;95819.19;;;3.07;100.00
10946;BME280;5525;42.648;23.368;2023-12-28T02:24:26;95830.72;;;2.91;100.00
10946;BME280;5525;42.648;23.368;2023-12-28T02:26:54;95819.72;;;2.88;100.00
10946;BME280;5525;42.648;23.368;2023-12-28T02:29:21;95814.44;;;2.71;100.00
10946;BME280;5525;42.648;23.368;2023-12-28T02:31:53;95816.50;;;2.86;100.00
10946;BME280;5525;42.648;23.368;2023-12-28T02:34:34;95812.41;;;3.00;100.00
10946;BME280;5525;42.648;23.368;2023-12-28T02:37:05;95832.31;;;2.92;100.00
10946;BME280;5525;42.648;23.368;2023-12-28T02:39:32;95816.63;;;2.96;100.00
10946;BME280;5525;42.648;23.368;2023-12-28T02:42:01;95816.63;;;2.96;100.00
10946;BME280;5525;42.648;23.368;2023-12-28T02:44:26;95820.22;;;2.85;100.00
10946;BME280;5525;42.648;23.368;2023-12-28T02:46:53;95811.78;;;2.71;100.00
10946;BME280;5525;42.648;23.368;2023-12-28T02:49:20;95820.50;;;2.29;100.00
10946;BME280;5525;42.648;23.368;2023-12-28T02:51:47;95814.06;;;2.63;100.00
10946;BME280;5525;42.648;23.368;2023-12-28T02:54:13;95818.72;;;2.72;100.00
10946;BME280;5525;42.648;23.368;2023-12-28T02:56:40;95816.75;;;2.84;100.00
10946;BME280;5525;42.648;23.368;2023-12-28T02:59:08;95809.88;;;2.88;100.00
10946;BME280;5525;42.648;23.368;2023-12-28T03:01:35;95806.28;;;2.99;100.00
10946;BME280;5525;42.648;23.368;2023-12-28T03:04:02;95802.22;;;2.97;100.00
10946;BME280;5525;42.648;23.368;2023-12-28T03:06:29;95807.72;;;2.47;100.00
10946;BME280;5525;42.648;23.368;2023-12-28T03:08:55;95802.00;;;2.22;100.00
10946;BME280;5525;42.648;23.368;2023-12-28T03:11:22;95792.31;;;2.33;100.00
10946;BME280;5525;42.648;23.368;2023-12-28T03:13:49;95800.13;;;2.39;100.00
10946;BME280;5525;42.648;23.368;2023-12-28T03:16:17;95791.78;;;2.52;100.00
10946;BME280;5525;42.648;23.368;2023-12-28T03:18:44;95791.69;;;2.64;100.00
10946;BME280;5525;42.648;23.368;2023-12-28T03:21:11;95785.28;;;2.65;100.00
10946;BME280;5525;42.648;23.368;2023-12-28T03:23:37;95795.19;;;2.86;100.00
10946;BME280;5525;42.648;23.368;2023-12-28T03:26:04;95790.38;;;2.88;100.00
10946;BME280;5525;42.648;23.368;2023-12-28T03:28:31;95789.84;;;2.86;100.00
10946;BME280;5525;42.648;23.368;2023-12-28T03:30:58;95791.56;;;2.97;100.00
10946;BME280;5525;42.648;23.368;2023-12-28T03:33:27;95794.84;;;3.04;100.00
10946;BME280;5525;42.648;23.368;2023-12-28T03:35:53;95799.06;;;3.00;100.00
10946;BME280;5525;42.648;23.368;2023-12-28T03:38:21;95808.88;;;2.94;100.00
10946;BME280;5525;42.648;23.368;2023-12-28T03:40:47;95808.88;;;2.94;100.00
10946;BME280;5525;42.648;23.368;2023-12-28T03:43:15;95816.06;;;2.94;100.00
10946;BME280;5525;42.648;23.368;2023-12-28T03:45:42;95817.13;;;2.93;100.00
10946;BME280;5525;42.648;23.368;2023-12-28T03:48:08;95813.22;;;3.00;100.00
10946;BME280;5525;42.648;23.368;2023-12-28T03:50:37;95820.97;;;3.02;100.00
10946;BME280;5525;42.648;23.368;2023-12-28T03:53:04;95831.03;;;2.95;100.00
10946;BME280;5525;42.648;23.368;2023-12-28T03:55:30;95835.44;;;2.68;100.00
10946;BME280;5525;42.648;23.368;2023-12-28T03:57:57;95837.75;;;2.59;100.00
10946;BME280;5525;42.648;23.368;2023-12-28T04:00:24;95842.19;;;2.54;100.00
10946;BME280;5525;42.648;23.368;2023-12-28T04:02:51;95833.06;;;2.50;100.00
10946;BME280;5525;42.648;23.368;2023-12-28T04:05:18;95831.47;;;2.49;100.00
10946;BME280;5525;42.648;23.368;2023-12-28T04:07:46;95830.47;;;2.55;100.00
10946;BME280;5525;42.648;23.368;2023-12-28T04:10:13;95837.25;;;2.62;100.00
10946;BME280;5525;42.648;23.368;2023-12-28T04:12:39;95828.44;;;2.62;100.00
10946;BME280;5525;42.648;23.368;2023-12-28T04:15:06;95830.94;;;2.68;100.00
10946;BME280;5525;42.648;23.368;2023-12-28T04:17:33;95823.75;;;2.52;100.00
10946;BME280;5525;42.648;23.368;2023-12-28T04:20:00;95828.44;;;2.62;100.00
10946;BME280;5525;42.648;23.368;2023-12-28T04:22:27;95831.22;;;2.50;100.00
10946;BME280;5525;42.648;23.368;2023-12-28T04:24:55;95829.38;;;2.34;100.00
10946;BME280;5525;42.648;23.368;2023-12-28T04:27:22;95829.94;;;2.36;100.00
10946;BME280;5525;42.648;23.368;2023-12-28T04:29:49;95836.50;;;2.29;100.00
10946;BME280;5525;42.648;23.368;2023-12-28T04:32:15;95830.38;;;2.12;100.00
10946;BME280;5525;42.648;23.368;2023-12-28T04:34:42;95836.91;;;2.04;100.00
10946;BME280;5525;42.648;23.368;2023-12-28T04:37:09;95835.59;;;2.07;100.00
10946;BME280;5525;42.648;23.368;2023-12-28T04:39:37;95835.78;;;2.17;100.00
10946;BME280;5525;42.648;23.368;2023-12-28T04:42:05;95834.31;;;2.26;100.00
10946;BME280;5525;42.648;23.368;2023-12-28T04:44:32;95832.28;;;2.33;100.00
10946;BME280;5525;42.648;23.368;2023-12-28T04:46:58;95827.53;;;2.35;100.00
10946;BME280;5525;42.648;23.368;2023-12-28T04:49:27;95838.44;;;2.33;100.00
10946;BME280;5525;42.648;23.368;2023-12-28T04:51:53;95836.50;;;2.29;100.00
10946;BME280;5525;42.648;23.368;2023-12-28T04:54:20;95827.28;;;2.36;100.00
10946;BME280;5525;42.648;23.368;2023-12-28T04:56:47;95830.94;;;2.30;100.00
10946;BME280;5525;42.648;23.368;2023-12-28T04:59:15;95831.63;;;2.42;100.00
10946;BME280;5525;42.648;23.368;2023-12-28T05:01:42;95825.81;;;2.45;100.00
10946;BME280;5525;42.648;23.368;2023-12-28T05:04:09;95827.84;;;2.38;100.00
10946;BME280;5525;42.648;23.368;2023-12-28T05:06:36;95828.66;;;2.22;100.00
10946;BME280;5525;42.648;23.368;2023-12-28T05:09:03;95836.50;;;1.96;100.00
10946;BME280;5525;42.648;23.368;2023-12-28T05:11:31;95828.44;;;2.07;100.00
10946;BME280;5525;42.648;23.368;2023-12-28T05:13:57;95835.06;;;1.60;100.00
10946;BME280;5525;42.648;23.368;2023-12-28T05:16:25;95838.91;;;1.97;100.00
10946;BME280;5525;42.648;23.368;2023-12-28T05:18:52;95835.53;;;2.02;100.00
10946;BME280;5525;42.648;23.368;2023-12-28T05:21:19;95831.34;;;2.06;100.00
10946;BME280;5525;42.648;23.368;2023-12-28T05:23:46;95831.34;;;2.06;100.00
10946;BME280;5525;42.648;23.368;2023-12-28T05:26:13;95837.84;;;1.65;100.00
10946;BME280;5525;42.648;23.368;2023-12-28T05:28:39;95840.63;;;1.58;100.00
10946;BME280;5525;42.648;23.368;2023-12-28T05:31:06;95837.22;;;1.91;100.00
10946;BME280;5525;42.648;23.368;2023-12-28T05:33:34;95840.84;;;2.02;100.00
10946;BME280;5525;42.648;23.368;2023-12-28T05:36:01;95838.28;;;1.90;100.00
10946;BME280;5525;42.648;23.368;2023-12-28T05:38:28;95839.09;;;1.91;100.00
10946;BME280;5525;42.648;23.368;2023-12-28T05:40:55;95845.06;;;1.98;100.00
10946;BME280;5525;42.648;23.368;2023-12-28T05:43:21;95850.53;;;2.08;100.00
10946;BME280;5525;42.648;23.368;2023-12-28T05:45:48;95854.75;;;2.04;100.00
10946;BME280;5525;42.648;23.368;2023-12-28T05:48:15;95851.50;;;2.02;100.00
10946;BME280;5525;42.648;23.368;2023-12-28T05:50:43;95846.97;;;1.86;100.00
10946;BME280;5525;42.648;23.368;2023-12-28T05:53:10;95846.25;;;1.73;100.00
10946;BME280;5525;42.648;23.368;2023-12-28T05:55:39;95854.41;;;1.84;100.00
10946;BME280;5525;42.648;23.368;2023-12-28T05:58:06;95858.34;;;1.64;100.00
10946;BME280;5525;42.648;23.368;2023-12-28T06:00:33;95859.84;;;1.60;100.00
10946;BME280;5525;42.648;23.368;2023-12-28T06:03:01;95872.56;;;1.58;100.00
10946;BME280;5525;42.648;23.368;2023-12-28T06:05:28;95862.47;;;1.44;100.00
10946;BME280;5525;42.648;23.368;2023-12-28T06:07:56;95861.69;;;1.60;100.00
10946;BME280;5525;42.648;23.368;2023-12-28T06:10:23;95860.66;;;1.33;100.00
10946;BME280;5525;42.648;23.368;2023-12-28T06:12:50;95860.25;;;1.24;100.00
10946;BME280;5525;42.648;23.368;2023-12-28T06:15:17;95856.06;;;1.28;100.00
10946;BME280;5525;42.648;23.368;2023-12-28T06:17:44;95858.75;;;1.45;100.00
10946;BME280;5525;42.648;23.368;2023-12-28T06:20:11;95868.03;;;1.42;100.00
10946;BME280;5525;42.648;23.368;2023-12-28T06:22:37;95871.34;;;1.49;100.00
10946;BME280;5525;42.648;23.368;2023-12-28T06:25:06;95863.19;;;1.67;100.00
10946;BME280;5525;42.648;23.368;2023-12-28T06:27:33;95860.88;;;1.88;100.00
10946;BME280;5525;42.648;23.368;2023-12-28T06:30:00;95873.53;;;1.97;100.00
10946;BME280;5525;42.648;23.368;2023-12-28T06:32:25;95863.59;;;2.09;100.00
10946;BME280;5525;42.648;23.368;2023-12-28T06:34:52;95868.47;;;2.12;100.00
10946;BME280;5525;42.648;23.368;2023-12-28T06:37:19;95874.09;;;1.99;100.00
10946;BME280;5525;42.648;23.368;2023-12-28T06:39:46;95876.22;;;2.14;100.00
10946;BME280;5525;42.648;23.368;2023-12-28T06:42:14;95876.28;;;2.19;100.00
10946;BME280;5525;42.648;23.368;2023-12-28T06:44:41;95881.13;;;2.22;100.00
10946;BME280;5525;42.648;23.368;2023-12-28T06:47:07;95871.22;;;2.34;100.00
10946;BME280;5525;42.648;23.368;2023-12-28T06:49:34;95878.88;;;2.30;100.00
10946;BME280;5525;42.648;23.368;2023-12-28T06:52:01;95883.16;;;2.31;100.00
10946;BME280;5525;42.648;23.368;2023-12-28T06:54:28;95885.09;;;2.36;100.00
10946;BME280;5525;42.648;23.368;2023-12-28T06:56:54;95880.81;;;2.35;100.00
10946;BME280;5525;42.648;23.368;2023-12-28T06:59:23;95876.06;;;2.53;100.00
10946;BME280;5525;42.648;23.368;2023-12-28T07:01:49;95879.84;;;2.57;100.00
10946;BME280;5525;42.648;23.368;2023-12-28T07:04:16;95879.91;;;2.62;100.00
10946;BME280;5525;42.648;23.368;2023-12-28T07:06:43;95884.66;;;2.60;100.00
10946;BME280;5525;42.648;23.368;2023-12-28T07:09:10;95881.50;;;2.63;100.00
10946;BME280;5525;42.648;23.368;2023-12-28T07:11:37;95878.09;;;2.84;100.00
10946;BME280;5525;42.648;23.368;2023-12-28T07:14:03;95874.28;;;2.80;100.00
10946;BME280;5525;42.648;23.368;2023-12-28T07:16:31;95870.06;;;3.01;100.00
10946;BME280;5525;42.648;23.368;2023-12-28T07:18:58;95873.22;;;3.19;100.00
10946;BME280;5525;42.648;23.368;2023-12-28T07:21:25;95873.34;;;3.08;100.00
10946;BME280;5525;42.648;23.368;2023-12-28T07:23:52;95886.69;;;3.29;100.00
10946;BME280;5525;42.648;23.368;2023-12-28T07:26:19;95885.31;;;3.48;100.00
10946;BME280;5525;42.648;23.368;2023-12-28T07:28:45;95869.97;;;3.61;100.00
10946;BME280;5525;42.648;23.368;2023-12-28T07:31:22;95872.13;;;3.64;100.00
10946;BME280;5525;42.648;23.368;2023-12-28T07:33:51;95873.44;;;3.61;100.00
10946;BME280;5525;42.648;23.368;2023-12-28T07:36:17;95877.88;;;3.77;100.00
10946;BME280;5525;42.648;23.368;2023-12-28T07:38:44;95884.38;;;3.60;100.00
10946;BME280;5525;42.648;23.368;2023-12-28T07:41:11;95881.00;;;3.47;100.00
10946;BME280;5525;42.648;23.368;2023-12-28T07:43:38;95885.88;;;3.77;100.00
10946;BME280;5525;42.648;23.368;2023-12-28T07:46:05;95880.25;;;4.00;100.00
10946;BME280;5525;42.648;23.368;2023-12-28T07:48:31;95888.16;;;3.90;100.00
10946;BME280;5525;42.648;23.368;2023-12-28T07:51:03;95877.78;;;3.67;100.00
10946;BME280;5525;42.648;23.368;2023-12-28T07:53:30;95879.28;;;3.58;100.00
10946;BME280;5525;42.648;23.368;2023-12-28T07:55:57;95886.91;;;3.71;100.00
10946;BME280;5525;42.648;23.368;2023-12-28T07:58:24;95883.84;;;3.84;100.00
10946;BME280;5525;42.648;23.368;2023-12-28T08:00:51;95881.13;;;4.11;100.00
10946;BME280;5525;42.648;23.368;2023-12-28T08:03:18;95887.00;;;4.08;100.00
10946;BME280;5525;42.648;23.368;2023-12-28T08:05:45;95885.22;;;4.18;100.00
10946;BME280;5525;42.648;23.368;2023-12-28T08:08:14;95878.63;;;4.31;100.00
10946;BME280;5525;42.648;23.368;2023-12-28T08:10:41;95876.47;;;4.59;100.00
10946;BME280;5525;42.648;23.368;2023-12-28T08:13:08;95883.88;;;4.47;100.00
10946;BME280;5525;42.648;23.368;2023-12-28T08:15:34;95877.63;;;4.73;100.00
10946;BME280;5525;42.648;23.368;2023-12-28T08:18:01;95871.59;;;4.93;100.00
10946;BME280;5525;42.648;23.368;2023-12-28T08:20:28;95873.72;;;4.91;100.00
10946;BME280;5525;42.648;23.368;2023-12-28T08:22:55;95871.44;;;5.14;100.00
10946;BME280;5525;42.648;23.368;2023-12-28T08:25:23;95864.59;;;5.39;100.00
10946;BME280;5525;42.648;23.368;2023-12-28T08:27:50;95868.09;;;5.49;100.00
10946;BME280;5525;42.648;23.368;2023-12-28T08:30:17;95861.66;;;5.40;100.00
10946;BME280;5525;42.648;23.368;2023-12-28T08:32:43;95864.44;;;5.70;100.00
10946;BME280;5525;42.648;23.368;2023-12-28T08:35:10;95867.19;;;5.85;100.00
10946;BME280;5525;42.648;23.368;2023-12-28T08:37:37;95866.59;;;5.78;100.00
10946;BME280;5525;42.648;23.368;2023-12-28T08:40:05;95871.53;;;6.11;100.00
10946;BME280;5525;42.648;23.368;2023-12-28T08:42:33;95855.16;;;6.13;100.00
10946;BME280;5525;42.648;23.368;2023-12-28T08:45:00;95854.91;;;6.34;100.00
10946;BME280;5525;42.648;23.368;2023-12-28T08:47:27;95852.22;;;6.34;100.00
10946;BME280;5525;42.648;23.368;2023-12-28T08:49:54;95854.09;;;6.54;100.00
10946;BME280;5525;42.648;23.368;2023-12-28T08:52:20;95836.09;;;6.64;100.00
10946;BME280;5525;42.648;23.368;2023-12-28T08:54:47;95831.81;;;6.58;100.00
10946;BME280;5525;42.648;23.368;2023-12-28T08:57:14;95830.47;;;6.66;100.00
10946;BME280;5525;42.648;23.368;2023-12-28T08:59:42;95821.91;;;6.59;100.00
10946;BME280;5525;42.648;23.368;2023-12-28T09:02:09;95838.50;;;6.71;100.00
10946;BME280;5525;42.648;23.368;2023-12-28T09:04:35;95826.44;;;6.63;100.00
10946;BME280;5525;42.648;23.368;2023-12-28T09:07:04;95824.56;;;6.54;100.00
10946;BME280;5525;42.648;23.368;2023-12-28T09:09:31;95827.00;;;6.65;100.00
10946;BME280;5525;42.648;23.368;2023-12-28T09:11:57;95823.22;;;6.61;100.00
10946;BME280;5525;42.648;23.368;2023-12-28T09:14:24;95810.03;;;6.75;100.00
10946;BME280;5525;42.648;23.368;2023-12-28T09:16:52;95820.00;;;6.74;100.00
10946;BME280;5525;42.648;23.368;2023-12-28T09:19:19;95815.72;;;6.68;100.00
10946;BME280;5525;42.648;23.368;2023-12-28T09:21:46;95810.34;;;6.58;100.00
10946;BME280;5525;42.648;23.368;2023-12-28T09:24:12;95812.72;;;6.75;100.00
10946;BME280;5525;42.648;23.368;2023-12-28T09:26:40;95800.41;;;6.69;100.00
10946;BME280;5525;42.648;23.368;2023-12-28T09:29:07;95796.88;;;6.78;100.00
10946;BME280;5525;42.648;23.368;2023-12-28T09:31:34;95790.91;;;6.97;100.00
10946;BME280;5525;42.648;23.368;2023-12-28T09:34:02;95789.56;;;7.04;100.00
10946;BME280;5525;42.648;23.368;2023-12-28T09:36:30;95788.22;;;7.02;100.00
10946;BME280;5525;42.648;23.368;2023-12-28T09:38:56;95783.41;;;6.93;100.00
10946;BME280;5525;42.648;23.368;2023-12-28T09:41:26;95777.81;;;6.80;100.00
10946;BME280;5525;42.648;23.368;2023-12-28T09:43:54;95772.13;;;6.97;100.00
10946;BME280;5525;42.648;23.368;2023-12-28T09:46:25;95768.25;;;7.28;100.00
10946;BME280;5525;42.648;23.368;2023-12-28T09:48:53;95767.94;;;7.39;100.00
10946;BME280;5525;42.648;23.368;2023-12-28T09:51:23;95766.09;;;7.30;100.00
10946;BME280;5525;42.648;23.368;2023-12-28T09:53:50;95762.50;;;7.44;100.00
10946;BME280;5525;42.648;23.368;2023-12-28T09:56:17;95764.91;;;7.46;100.00
10946;BME280;5525;42.648;23.368;2023-12-28T09:58:46;95752.19;;;7.61;100.00
10946;BME280;5525;42.648;23.368;2023-12-28T10:01:14;95750.00;;;7.73;100.00
10946;BME280;5525;42.648;23.368;2023-12-28T10:03:41;95738.06;;;7.84;100.00
10946;BME280;5525;42.648;23.368;2023-12-28T10:06:08;95728.28;;;7.98;100.00
10946;BME280;5525;42.648;23.368;2023-12-28T10:08:36;95733.88;;;8.07;100.00
10946;BME280;5525;42.648;23.368;2023-12-28T10:11:03;95725.94;;;8.20;100.00
10946;BME280;5525;42.648;23.368;2023-12-28T10:13:33;95724.03;;;8.26;100.00
10946;BME280;5525;42.648;23.368;2023-12-28T10:16:00;95712.81;;;8.14;100.00
10946;BME280;5525;42.648;23.368;2023-12-28T10:18:28;95713.78;;;8.28;100.00
10946;BME280;5525;42.648;23.368;2023-12-28T10:20:55;95715.47;;;8.19;100.00
10946;BME280;5525;42.648;23.368;2023-12-28T10:23:23;95713.63;;;7.81;100.00
10946;BME280;5525;42.648;23.368;2023-12-28T10:25:55;95704.69;;;8.19;100.00
10946;BME280;5525;42.648;23.368;2023-12-28T10:28:24;95701.00;;;8.43;100.00
10946;BME280;5525;42.648;23.368;2023-12-28T10:30:54;95683.47;;;8.46;100.00
10946;BME280;5525;42.648;23.368;2023-12-28T10:33:21;95689.81;;;8.55;100.00
10946;BME280;5525;42.648;23.368;2023-12-28T10:35:49;95680.16;;;8.78;100.00
10946;BME280;5525;42.648;23.368;2023-12-28T10:38:17;95679.34;;;8.77;100.00
10946;BME280;5525;42.648;23.368;2023-12-28T10:40:44;95663.63;;;8.84;100.00
10946;BME280;5525;42.648;23.368;2023-12-28T10:43:16;95664.25;;;9.00;100.00
10946;BME280;5525;42.648;23.368;2023-12-28T10:45:46;95654.78;;;9.02;100.00
10946;BME280;5525;42.648;23.368;2023-12-28T10:48:13;95645.09;;;9.01;100.00
10946;BME280;5525;42.648;23.368;2023-12-28T10:50:41;95643.56;;;9.14;100.00
10946;BME280;5525;42.648;23.368;2023-12-28T10:53:17;95635.25;;;9.10;100.00
10946;BME280;5525;42.648;23.368;2023-12-28T10:55:53;95628.28;;;9.28;100.00
10946;BME280;5525;42.648;23.368;2023-12-28T10:58:33;95622.19;;;9.41;100.00
10946;BME280;5525;42.648;23.368;2023-12-28T11:01:07;95618.97;;;9.39;100.00
10946;BME280;5525;42.648;23.368;2023-12-28T11:03:37;95618.34;;;9.60;100.00
10946;BME280;5525;42.648;23.368;2023-12-28T11:06:08;95615.41;;;9.25;100.00
10946;BME280;5525;42.648;23.368;2023-12-28T11:08:35;95613.84;;;9.56;100.00
10946;BME280;5525;42.648;23.368;2023-12-28T11:11:04;95614.63;;;9.56;100.00
10946;BME280;5525;42.648;23.368;2023-12-28T11:13:39;95606.19;;;9.44;100.00
10946;BME280;5525;42.648;23.368;2023-12-28T11:16:06;95604.09;;;9.73;100.00
10946;BME280;5525;42.648;23.368;2023-12-28T11:18:34;95604.63;;;9.75;100.00
10946;BME280;5525;42.648;23.368;2023-12-28T11:21:00;95594.91;;;9.61;100.00
10946;BME280;5525;42.648;23.368;2023-12-28T11:23:28;95597.41;;;9.71;100.00
10946;BME280;5525;42.648;23.368;2023-12-28T11:25:55;95585.81;;;9.70;100.00
10946;BME280;5525;42.648;23.368;2023-12-28T11:28:23;95585.09;;;9.65;100.00
10946;BME280;5525;42.648;23.368;2023-12-28T11:30:52;95581.00;;;9.67;100.00
10946;BME280;5525;42.648;23.368;2023-12-28T11:33:19;95579.22;;;9.76;100.00
10946;BME280;5525;42.648;23.368;2023-12-28T11:35:47;95572.31;;;9.70;100.00
10946;BME280;5525;42.648;23.368;2023-12-28T11:38:15;95573.81;;;9.63;100.00
10946;BME280;5525;42.648;23.368;2023-12-28T11:40:44;95573.22;;;9.66;100.00
10946;BME280;5525;42.648;23.368;2023-12-28T11:43:15;95562.66;;;9.69;100.00
10946;BME280;5525;42.648;23.368;2023-12-28T11:45:48;95556.28;;;9.92;100.00
10946;BME280;5525;42.648;23.368;2023-12-28T11:48:25;95559.41;;;9.99;100.00
10946;BME280;5525;42.648;23.368;2023-12-28T11:50:55;95562.44;;;9.79;100.00
10946;BME280;5525;42.648;23.368;2023-12-28T11:53:24;95563.53;;;10.10;100.00
10946;BME280;5525;42.648;23.368;2023-12-28T11:55:51;95561.25;;;10.17;100.00
10946;BME280;5525;42.648;23.368;2023-12-28T11:58:18;95556.16;;;10.16;100.00
10946;BME280;5525;42.648;23.368;2023-12-28T12:00:45;95551.97;;;10.23;100.00
10946;BME280;5525;42.648;23.368;2023-12-28T12:03:13;95552.88;;;10.33;100.00
10946;BME280;5525;42.648;23.368;2023-12-28T12:05:42;95535.16;;;10.40;100.00
10946;BME280;5525;42.648;23.368;2023-12-28T12:08:09;95546.34;;;10.47;100.00
10946;BME280;5525;42.648;23.368;2023-12-28T12:10:39;95546.78;;;10.41;100.00
10946;BME280;5525;42.648;23.368;2023-12-28T12:13:05;95544.34;;;10.53;100.00
10946;BME280;5525;42.648;23.368;2023-12-28T12:15:32;95537.03;;;10.67;100.00
10946;BME280;5525;42.648;23.368;2023-12-28T12:18:00;95537.72;;;10.72;100.00
10946;BME280;5525;42.648;23.368;2023-12-28T12:20:27;95528.09;;;10.80;100.00
10946;BME280;5525;42.648;23.368;2023-12-28T12:22:58;95524.00;;;10.82;100.00
10946;BME280;5525;42.648;23.368;2023-12-28T12:25:25;95514.53;;;10.93;100.00
10946;BME280;5525;42.648;23.368;2023-12-28T12:27:53;95522.94;;;11.05;100.00
10946;BME280;5525;42.648;23.368;2023-12-28T12:30:19;95519.22;;;11.01;100.00
10946;BME280;5525;42.648;23.368;2023-12-28T12:32:47;95531.34;;;11.04;100.00
10946;BME280;5525;42.648;23.368;2023-12-28T12:35:15;95529.72;;;11.03;100.00
10946;BME280;5525;42.648;23.368;2023-12-28T12:37:43;95526.84;;;11.21;100.00
10946;BME280;5525;42.648;23.368;2023-12-28T12:40:12;95524.84;;;11.27;100.00
10946;BME280;5525;42.648;23.368;2023-12-28T12:42:40;95523.31;;;12.65;100.00
10946;BME280;5525;42.648;23.368;2023-12-28T12:45:08;95517.97;;;15.09;100.00
10946;BME280;5525;42.648;23.368;2023-12-28T12:47:35;95521.31;;;16.69;85.79
10946;BME280;5525;42.648;23.368;2023-12-28T12:50:02;95516.31;;;17.75;75.26
10946;BME280;5525;42.648;23.368;2023-12-28T12:52:29;95528.84;;;17.36;71.17
10946;BME280;5525;42.648;23.368;2023-12-28T12:54:56;95526.88;;;16.97;70.25
10946;BME280;5525;42.648;23.368;2023-12-28T12:57:25;95516.31;;;16.83;69.64
10946;BME280;5525;42.648;23.368;2023-12-28T12:59:52;95515.78;;;17.97;67.17
10946;BME280;5525;42.648;23.368;2023-12-28T13:02:22;95523.84;;;18.99;62.34